Hoanya Wisdom — 3EQU7 — position and weather

sailwx.info

Track history (hours):
 
Tides and Currents Weather Stations Pressure Air Temp Water Temp Dewpoint Dewpoint Depression Visibility Wind Speed Wind Dir Waves Ship Positions

Hoanya Wisdom

Last reported at 2017-Nov-18 21:51 UTC. Time now 2017-Nov-23 21:03 UTC.
Position N 36°25' E 014°48'.

Length 152 m; draft 9 m.

MMSI: 355824000.

Date/timePositionNaut miles runAvg speedWind from/ knotsBaromVisibWave heightAir tempDewpointWater temp
2017-Nov-18 21:51N 36°25' E 014°48'513.5
2017-Nov-18 21:30N 36°26' E 014°42'713.6
2017-Nov-18 21:00N 36°27' E 014°34'713.3
2017-Nov-18 20:29N 36°29' E 014°26'913.3
2017-Nov-18 19:47N 36°32' E 014°15'413.4
2017-Nov-18 19:27N 36°33' E 014°09'  
2017-Nov-15 20:10N 35°59' W 005°14'211.8
2017-Nov-15 20:00N 35°58' W 005°16'4 8.4
2017-Nov-15 19:29N 35°55' W 005°19'0 0.2
2017-Nov-15 18:59N 35°55' W 005°19'0 0.0
2017-Nov-15 18:26N 35°55' W 005°19'0 0.0
2017-Nov-15 17:59N 35°55' W 005°19'0 0.1
2017-Nov-15 17:29N 35°55' W 005°19'0 0.0
2017-Nov-15 16:59N 35°55' W 005°19'0 0.0
2017-Nov-15 16:29N 35°55' W 005°19'0 0.0
2017-Nov-15 15:59N 35°55' W 005°19'0 0.1
2017-Nov-15 15:29N 35°55' W 005°19'0 0.0
2017-Nov-15 14:59N 35°55' W 005°19'0 0.0
2017-Nov-15 14:29N 35°55' W 005°19'0 0.0
2017-Nov-15 13:59N 35°55' W 005°19'0 0.0
2017-Nov-15 13:29N 35°55' W 005°19'0 0.1
2017-Nov-15 12:59N 35°55' W 005°19'0 0.1
2017-Nov-15 12:29N 35°55' W 005°19'0 0.1
2017-Nov-15 11:59N 35°55' W 005°19'0 0.0
2017-Nov-15 11:29N 35°55' W 005°19'0 0.1
2017-Nov-15 10:59N 35°55' W 005°19'0 0.0
2017-Nov-15 10:29N 35°55' W 005°19'0 0.1
2017-Nov-15 09:59N 35°55' W 005°19'0 0.1
2017-Nov-15 09:29N 35°55' W 005°19'0 0.1
2017-Nov-15 08:59N 35°55' W 005°19'0 0.1
2017-Nov-15 08:29N 35°55' W 005°19'0 0.0
2017-Nov-15 07:59N 35°55' W 005°19'0 0.1
2017-Nov-15 07:29N 35°55' W 005°19'0 0.0
2017-Nov-15 06:59N 35°55' W 005°19'0 0.1
2017-Nov-15 06:29N 35°55' W 005°19'0 0.1
2017-Nov-15 05:59N 35°55' W 005°19'0 0.0
2017-Nov-15 05:29N 35°55' W 005°19'0 0.1
2017-Nov-15 04:59N 35°55' W 005°19'0 0.0
2017-Nov-15 04:29N 35°55' W 005°19'0 0.0
2017-Nov-15 03:59N 35°55' W 005°19'0 0.0
2017-Nov-15 03:29N 35°55' W 005°19'0 0.0
2017-Nov-15 02:59N 35°55' W 005°19'0 0.0
2017-Nov-15 02:29N 35°55' W 005°19'0 0.0
2017-Nov-15 01:59N 35°55' W 005°19'0 0.1
2017-Nov-15 01:29N 35°55' W 005°19'0 0.1
2017-Nov-15 00:59N 35°55' W 005°19'0 0.1
2017-Nov-15 00:29N 35°55' W 005°19'0 0.1
2017-Nov-14 23:59N 35°55' W 005°19'0 0.1
2017-Nov-14 23:29N 35°55' W 005°19'0 0.0
2017-Nov-14 22:59N 35°55' W 005°19'0 0.0
2017-Nov-14 22:26N 35°55' W 005°19'0 0.0
2017-Nov-14 21:59N 35°55' W 005°19'0 0.0
2017-Nov-14 21:29N 35°55' W 005°19'0 0.0
2017-Nov-14 20:59N 35°55' W 005°19'0 0.0
2017-Nov-14 20:29N 35°55' W 005°19'0 0.0
2017-Nov-14 19:59N 35°55' W 005°19'0 0.1
2017-Nov-14 19:29N 35°55' W 005°19'0 0.1
2017-Nov-14 18:59N 35°55' W 005°19'0 0.1
2017-Nov-14 18:29N 35°55' W 005°19'0 0.0
2017-Nov-14 17:59N 35°55' W 005°19'0 0.1
2017-Nov-14 17:29N 35°55' W 005°19'0 0.2
2017-Nov-14 16:59N 35°55' W 005°19'0 0.1
2017-Nov-14 16:29N 35°55' W 005°19'0 0.2
2017-Nov-14 15:59N 35°55' W 005°19'0 0.1
2017-Nov-14 15:29N 35°55' W 005°19'0 0.1
2017-Nov-14 14:59N 35°55' W 005°19'0 0.1
2017-Nov-14 14:29N 35°55' W 005°19'0 0.2
2017-Nov-14 14:00N 35°55' W 005°19'2 4.5
2017-Nov-14 13:30N 35°57' W 005°20'510.6
2017-Nov-14 13:00N 35°57' W 005°27'  
2017-Nov-11 06:30N 36°00' W 024°05'5 9.4
2017-Nov-11 06:00N 35°60' W 024°11'5 9.6
2017-Nov-11 05:30N 35°60' W 024°17'5 9.9
2017-Nov-11 05:00N 35°60' W 024°23'5 9.3
2017-Nov-11 04:30N 35°60' W 024°29'5 9.2
2017-Nov-11 04:00N 35°60' W 024°35'5 9.4
2017-Nov-11 03:30N 35°60' W 024°40'4 9.0
2017-Nov-11 03:00N 35°60' W 024°46'5 9.3
2017-Nov-11 02:30N 36°00' W 024°52'5 9.3
2017-Nov-11 02:01N 35°60' W 024°57'5 9.2
2017-Nov-11 01:30N 35°60' W 025°03'4 8.5
2017-Nov-11 01:00N 35°60' W 025°08'4 8.8
2017-Nov-11 00:30N 35°60' W 025°14'4 8.6
2017-Nov-11 00:00N 35°60' W 025°19'4 8.6
2017-Nov-10 23:31N 35°59' W 025°24'4 8.5
2017-Nov-10 23:00N 35°59' W 025°30'4 8.3
2017-Nov-10 22:30N 35°59' W 025°35'4 8.1
2017-Nov-10 22:00N 35°59' W 025°40'8 8.0
2017-Nov-10 21:04N 35°59' W 025°49'  
Track history (hours):
 
Tides and Currents Weather Stations Pressure Air Temp Water Temp Dewpoint Dewpoint Depression Visibility Wind Speed Wind Dir Waves Ship Positions

Hoanya Wisdom

Last reported at 2017-Nov-18 21:51 UTC. Time now 2017-Nov-23 21:03 UTC.
Position N 36°25' E 014°48'.

Length 152 m; draft 9 m.

MMSI: 355824000.

Date/timePositionNaut miles runAvg speedWind from/ knotsBaromVisibWave heightAir tempDewpointWater temp
2017-Nov-18 21:51N 36°25' E 014°48'513.5
2017-Nov-18 21:30N 36°26' E 014°42'713.6
2017-Nov-18 21:00N 36°27' E 014°34'713.3
2017-Nov-18 20:29N 36°29' E 014°26'913.3
2017-Nov-18 19:47N 36°32' E 014°15'413.4
2017-Nov-18 19:27N 36°33' E 014°09'  
2017-Nov-15 20:10N 35°59' W 005°14'211.8
2017-Nov-15 20:00N 35°58' W 005°16'4 8.4
2017-Nov-15 19:29N 35°55' W 005°19'0 0.2
2017-Nov-15 18:59N 35°55' W 005°19'0 0.0
2017-Nov-15 18:26N 35°55' W 005°19'0 0.0
2017-Nov-15 17:59N 35°55' W 005°19'0 0.1
2017-Nov-15 17:29N 35°55' W 005°19'0 0.0
2017-Nov-15 16:59N 35°55' W 005°19'0 0.0
2017-Nov-15 16:29N 35°55' W 005°19'0 0.0
2017-Nov-15 15:59N 35°55' W 005°19'0 0.1
2017-Nov-15 15:29N 35°55' W 005°19'0 0.0
2017-Nov-15 14:59N 35°55' W 005°19'0 0.0
2017-Nov-15 14:29N 35°55' W 005°19'0 0.0
2017-Nov-15 13:59N 35°55' W 005°19'0 0.0
2017-Nov-15 13:29N 35°55' W 005°19'0 0.1
2017-Nov-15 12:59N 35°55' W 005°19'0 0.1
2017-Nov-15 12:29N 35°55' W 005°19'0 0.1
2017-Nov-15 11:59N 35°55' W 005°19'0 0.0
2017-Nov-15 11:29N 35°55' W 005°19'0 0.1
2017-Nov-15 10:59N 35°55' W 005°19'0 0.0
2017-Nov-15 10:29N 35°55' W 005°19'0 0.1
2017-Nov-15 09:59N 35°55' W 005°19'0 0.1
2017-Nov-15 09:29N 35°55' W 005°19'0 0.1
2017-Nov-15 08:59N 35°55' W 005°19'0 0.1
2017-Nov-15 08:29N 35°55' W 005°19'0 0.0
2017-Nov-15 07:59N 35°55' W 005°19'0 0.1
2017-Nov-15 07:29N 35°55' W 005°19'0 0.0
2017-Nov-15 06:59N 35°55' W 005°19'0 0.1
2017-Nov-15 06:29N 35°55' W 005°19'0 0.1
2017-Nov-15 05:59N 35°55' W 005°19'0 0.0
2017-Nov-15 05:29N 35°55' W 005°19'0 0.1
2017-Nov-15 04:59N 35°55' W 005°19'0 0.0
2017-Nov-15 04:29N 35°55' W 005°19'0 0.0
2017-Nov-15 03:59N 35°55' W 005°19'0 0.0
2017-Nov-15 03:29N 35°55' W 005°19'0 0.0
2017-Nov-15 02:59N 35°55' W 005°19'0 0.0
2017-Nov-15 02:29N 35°55' W 005°19'0 0.0
2017-Nov-15 01:59N 35°55' W 005°19'0 0.1
2017-Nov-15 01:29N 35°55' W 005°19'0 0.1
2017-Nov-15 00:59N 35°55' W 005°19'0 0.1
2017-Nov-15 00:29N 35°55' W 005°19'0 0.1
2017-Nov-14 23:59N 35°55' W 005°19'0 0.1
2017-Nov-14 23:29N 35°55' W 005°19'0 0.0
2017-Nov-14 22:59N 35°55' W 005°19'0 0.0
2017-Nov-14 22:26N 35°55' W 005°19'0 0.0
2017-Nov-14 21:59N 35°55' W 005°19'0 0.0
2017-Nov-14 21:29N 35°55' W 005°19'0 0.0
2017-Nov-14 20:59N 35°55' W 005°19'0 0.0
2017-Nov-14 20:29N 35°55' W 005°19'0 0.0
2017-Nov-14 19:59N 35°55' W 005°19'0 0.1
2017-Nov-14 19:29N 35°55' W 005°19'0 0.1
2017-Nov-14 18:59N 35°55' W 005°19'0 0.1
2017-Nov-14 18:29N 35°55' W 005°19'0 0.0
2017-Nov-14 17:59N 35°55' W 005°19'0 0.1
2017-Nov-14 17:29N 35°55' W 005°19'0 0.2
2017-Nov-14 16:59N 35°55' W 005°19'0 0.1
2017-Nov-14 16:29N 35°55' W 005°19'0 0.2
2017-Nov-14 15:59N 35°55' W 005°19'0 0.1
2017-Nov-14 15:29N 35°55' W 005°19'0 0.1
2017-Nov-14 14:59N 35°55' W 005°19'0 0.1
2017-Nov-14 14:29N 35°55' W 005°19'0 0.2
2017-Nov-14 14:00N 35°55' W 005°19'2 4.5
2017-Nov-14 13:30N 35°57' W 005°20'510.6
2017-Nov-14 13:00N 35°57' W 005°27'  
2017-Nov-11 06:30N 36°00' W 024°05'5 9.4
2017-Nov-11 06:00N 35°60' W 024°11'5 9.6
2017-Nov-11 05:30N 35°60' W 024°17'5 9.9
2017-Nov-11 05:00N 35°60' W 024°23'5 9.3
2017-Nov-11 04:30N 35°60' W 024°29'5 9.2
2017-Nov-11 04:00N 35°60' W 024°35'5 9.4
2017-Nov-11 03:30N 35°60' W 024°40'4 9.0
2017-Nov-11 03:00N 35°60' W 024°46'5 9.3
2017-Nov-11 02:30N 36°00' W 024°52'5 9.3
2017-Nov-11 02:01N 35°60' W 024°57'5 9.2
2017-Nov-11 01:30N 35°60' W 025°03'4 8.5
2017-Nov-11 01:00N 35°60' W 025°08'4 8.8
2017-Nov-11 00:30N 35°60' W 025°14'4 8.6
2017-Nov-11 00:00N 35°60' W 025°19'4 8.6
2017-Nov-10 23:31N 35°59' W 025°24'4 8.5
2017-Nov-10 23:00N 35°59' W 025°30'4 8.3
2017-Nov-10 22:30N 35°59' W 025°35'4 8.1
2017-Nov-10 22:00N 35°59' W 025°40'8 8.0
2017-Nov-10 21:04N 35°59' W 025°49'  

Dump ship's entire track history